首页
METAR-TAF:

METAR-TAF

机场 :

Talkeetna, 阿拉斯加州, 美国

纬度: 62-19-14N, 经度: 150-05-37W, 海拔: 109米

当前天气观测

该预报发布于44分钟前的15:53 UTC
静风
温度 13°C
湿度 77%
气压 1022 hPa
能見度: 16.1公里
天空无云

METAR: PATK 211553Z 00000KT 10SM CLR 13/09 A3017 RMK AO2 SLP218 T01280094

时间: 08:37 (16:37 UTC)

预报

该预报发布于4小时和55分钟前的11:42 UTC
预报有效从21日的 12点(UTC)到 22日的 12点(UTC)
风速4节,风向多变
能見度: 10公里
散云层高于10000英尺

TAF: PATK 211142Z 2112/2212 VRB04KT P6SM SCT100

超过4000个机场的气象观测和天气预报(METAR&TAF报告)。

可查询的气象台以黄色和红色小点在地图上表示。

将鼠标移到小点上方,可查看气象台名称。

然后点击查看天气观测和预报。

如需切换地图:点击带黑十字的绿色按钮放大地图;点击带横线的绿色按钮缩小地图;或者点击绿色箭头查看邻近地区的地图。


METAR-TAF: